sensor_id;sensor_type;location;lat;lon;timestamp;P1;durP1;ratioP1;P2;durP2;ratioP2
37237;SDS011;23129;49.662;8.448;2023-02-04T00:00:31;11.40;;;2.15;;
37237;SDS011;23129;49.662;8.448;2023-02-04T00:03:04;18.58;;;1.98;;
37237;SDS011;23129;49.662;8.448;2023-02-04T00:05:32;3.10;;;1.13;;
37237;SDS011;23129;49.662;8.448;2023-02-04T00:08:01;10.20;;;1.83;;
37237;SDS011;23129;49.662;8.448;2023-02-04T00:10:30;10.18;;;1.30;;
37237;SDS011;23129;49.662;8.448;2023-02-04T00:12:58;9.70;;;1.77;;
37237;SDS011;23129;49.662;8.448;2023-02-04T00:15:27;11.27;;;1.30;;
37237;SDS011;23129;49.662;8.448;2023-02-04T00:17:56;3.63;;;1.42;;
37237;SDS011;23129;49.662;8.448;2023-02-04T00:20:25;13.32;;;2.10;;
37237;SDS011;23129;49.662;8.448;2023-02-04T00:22:54;7.85;;;1.77;;
37237;SDS011;23129;49.662;8.448;2023-02-04T00:25:22;4.40;;;1.88;;
37237;SDS011;23129;49.662;8.448;2023-02-04T00:27:51;10.48;;;1.65;;
37237;SDS011;23129;49.662;8.448;2023-02-04T00:30:20;7.18;;;1.88;;
37237;SDS011;23129;49.662;8.448;2023-02-04T00:32:48;7.75;;;1.67;;
37237;SDS011;23129;49.662;8.448;2023-02-04T00:35:20;12.40;;;1.55;;
37237;SDS011;23129;49.662;8.448;2023-02-04T00:37:52;11.40;;;2.03;;
37237;SDS011;23129;49.662;8.448;2023-02-04T00:40:21;7.70;;;1.33;;
37237;SDS011;23129;49.662;8.448;2023-02-04T00:42:49;13.82;;;1.92;;
37237;SDS011;23129;49.662;8.448;2023-02-04T00:45:17;4.53;;;1.52;;
37237;SDS011;23129;49.662;8.448;2023-02-04T00:47:46;8.15;;;1.55;;
37237;SDS011;23129;49.662;8.448;2023-02-04T00:50:15;10.60;;;1.63;;
37237;SDS011;23129;49.662;8.448;2023-02-04T00:52:44;8.55;;;1.67;;
37237;SDS011;23129;49.662;8.448;2023-02-04T00:55:14;8.57;;;1.88;;
37237;SDS011;23129;49.662;8.448;2023-02-04T00:57:43;16.42;;;2.05;;
37237;SDS011;23129;49.662;8.448;2023-02-04T01:00:13;5.00;;;1.88;;
37237;SDS011;23129;49.662;8.448;2023-02-04T01:02:43;11.18;;;1.75;;
37237;SDS011;23129;49.662;8.448;2023-02-04T01:05:12;15.85;;;1.85;;
37237;SDS011;23129;49.662;8.448;2023-02-04T01:07:40;7.82;;;1.60;;
37237;SDS011;23129;49.662;8.448;2023-02-04T01:10:09;3.13;;;1.55;;
37237;SDS011;23129;49.662;8.448;2023-02-04T01:12:39;9.88;;;1.65;;
37237;SDS011;23129;49.662;8.448;2023-02-04T01:15:07;9.98;;;1.33;;
37237;SDS011;23129;49.662;8.448;2023-02-04T01:17:37;3.90;;;1.33;;
37237;SDS011;23129;49.662;8.448;2023-02-04T01:20:07;7.80;;;2.05;;
37237;SDS011;23129;49.662;8.448;2023-02-04T01:22:36;5.63;;;1.40;;
37237;SDS011;23129;49.662;8.448;2023-02-04T01:25:05;6.05;;;1.60;;
37237;SDS011;23129;49.662;8.448;2023-02-04T01:27:42;6.50;;;1.52;;
37237;SDS011;23129;49.662;8.448;2023-02-04T01:30:11;5.25;;;1.48;;
37237;SDS011;23129;49.662;8.448;2023-02-04T01:32:41;9.07;;;1.73;;
37237;SDS011;23129;49.662;8.448;2023-02-04T01:35:10;11.07;;;2.10;;
37237;SDS011;23129;49.662;8.448;2023-02-04T01:37:38;6.15;;;1.85;;
37237;SDS011;23129;49.662;8.448;2023-02-04T01:40:07;13.25;;;2.22;;
37237;SDS011;23129;49.662;8.448;2023-02-04T01:42:37;10.13;;;2.15;;
37237;SDS011;23129;49.662;8.448;2023-02-04T01:45:08;7.60;;;1.50;;
37237;SDS011;23129;49.662;8.448;2023-02-04T01:47:37;8.13;;;1.80;;
37237;SDS011;23129;49.662;8.448;2023-02-04T01:50:07;10.40;;;1.88;;
37237;SDS011;23129;49.662;8.448;2023-02-04T01:52:38;10.75;;;2.05;;
37237;SDS011;23129;49.662;8.448;2023-02-04T01:55:10;5.47;;;1.73;;
37237;SDS011;23129;49.662;8.448;2023-02-04T01:57:42;7.30;;;1.63;;
37237;SDS011;23129;49.662;8.448;2023-02-04T02:00:14;9.50;;;1.65;;
37237;SDS011;23129;49.662;8.448;2023-02-04T02:02:54;5.85;;;1.42;;
37237;SDS011;23129;49.662;8.448;2023-02-04T02:05:24;12.40;;;1.83;;
37237;SDS011;23129;49.662;8.448;2023-02-04T02:07:58;6.60;;;1.45;;
37237;SDS011;23129;49.662;8.448;2023-02-04T02:10:28;6.18;;;1.73;;
37237;SDS011;23129;49.662;8.448;2023-02-04T02:12:58;10.48;;;1.83;;
37237;SDS011;23129;49.662;8.448;2023-02-04T02:15:30;4.25;;;1.25;;
37237;SDS011;23129;49.662;8.448;2023-02-04T02:17:58;8.93;;;1.45;;
37237;SDS011;23129;49.662;8.448;2023-02-04T02:20:27;6.97;;;1.63;;
37237;SDS011;23129;49.662;8.448;2023-02-04T02:23:01;10.55;;;1.73;;
37237;SDS011;23129;49.662;8.448;2023-02-04T02:25:42;11.02;;;1.90;;
37237;SDS011;23129;49.662;8.448;2023-02-04T02:28:12;12.20;;;1.83;;
37237;SDS011;23129;49.662;8.448;2023-02-04T02:30:44;9.43;;;1.52;;
37237;SDS011;23129;49.662;8.448;2023-02-04T02:33:15;3.78;;;1.30;;
37237;SDS011;23129;49.662;8.448;2023-02-04T02:35:46;8.35;;;1.55;;
37237;SDS011;23129;49.662;8.448;2023-02-04T02:38:15;9.23;;;1.70;;
37237;SDS011;23129;49.662;8.448;2023-02-04T02:40:47;9.52;;;1.83;;
37237;SDS011;23129;49.662;8.448;2023-02-04T02:43:17;4.93;;;1.42;;
37237;SDS011;23129;49.662;8.448;2023-02-04T02:45:49;5.45;;;1.00;;
37237;SDS011;23129;49.662;8.448;2023-02-04T02:48:17;5.07;;;1.45;;
37237;SDS011;23129;49.662;8.448;2023-02-04T02:50:45;7.88;;;1.27;;
37237;SDS011;23129;49.662;8.448;2023-02-04T02:53:16;8.75;;;1.80;;
37237;SDS011;23129;49.662;8.448;2023-02-04T02:55:49;6.40;;;1.60;;
37237;SDS011;23129;49.662;8.448;2023-02-04T02:58:22;8.70;;;1.50;;
37237;SDS011;23129;49.662;8.448;2023-02-04T03:00:54;9.13;;;1.52;;
37237;SDS011;23129;49.662;8.448;2023-02-04T03:03:25;18.23;;;2.25;;
37237;SDS011;23129;49.662;8.448;2023-02-04T03:05:56;20.73;;;2.45;;
37237;SDS011;23129;49.662;8.448;2023-02-04T03:08:31;7.93;;;1.63;;
37237;SDS011;23129;49.662;8.448;2023-02-04T03:11:00;9.75;;;1.73;;
37237;SDS011;23129;49.662;8.448;2023-02-04T03:13:29;17.95;;;2.00;;
37237;SDS011;23129;49.662;8.448;2023-02-04T03:15:59;4.50;;;1.85;;
37237;SDS011;23129;49.662;8.448;2023-02-04T03:18:28;16.00;;;2.00;;
37237;SDS011;23129;49.662;8.448;2023-02-04T03:20:57;4.97;;;1.67;;
37237;SDS011;23129;49.662;8.448;2023-02-04T03:23:25;16.15;;;1.98;;
37237;SDS011;23129;49.662;8.448;2023-02-04T03:25:54;9.48;;;1.88;;
37237;SDS011;23129;49.662;8.448;2023-02-04T03:28:24;8.50;;;2.50;;
37237;SDS011;23129;49.662;8.448;2023-02-04T03:30:52;9.45;;;2.17;;
37237;SDS011;23129;49.662;8.448;2023-02-04T03:33:22;8.18;;;2.08;;
37237;SDS011;23129;49.662;8.448;2023-02-04T03:35:51;6.28;;;2.80;;
37237;SDS011;23129;49.662;8.448;2023-02-04T03:38:20;22.13;;;5.30;;
37237;SDS011;23129;49.662;8.448;2023-02-04T03:40:48;10.63;;;2.97;;
37237;SDS011;23129;49.662;8.448;2023-02-04T03:43:16;5.55;;;1.65;;
37237;SDS011;23129;49.662;8.448;2023-02-04T03:45:46;8.27;;;2.08;;
37237;SDS011;23129;49.662;8.448;2023-02-04T03:48:14;10.55;;;2.15;;
37237;SDS011;23129;49.662;8.448;2023-02-04T03:50:43;8.02;;;1.73;;
37237;SDS011;23129;49.662;8.448;2023-02-04T03:53:11;10.45;;;1.63;;
37237;SDS011;23129;49.662;8.448;2023-02-04T03:55:40;14.93;;;2.20;;
37237;SDS011;23129;49.662;8.448;2023-02-04T03:58:08;10.68;;;2.20;;
37237;SDS011;23129;49.662;8.448;2023-02-04T04:00:36;7.13;;;1.60;;
37237;SDS011;23129;49.662;8.448;2023-02-04T04:03:06;13.75;;;2.08;;
37237;SDS011;23129;49.662;8.448;2023-02-04T04:05:34;6.18;;;1.60;;
37237;SDS011;23129;49.662;8.448;2023-02-04T04:08:03;10.40;;;1.92;;
37237;SDS011;23129;49.662;8.448;2023-02-04T04:10:31;11.98;;;2.65;;
37237;SDS011;23129;49.662;8.448;2023-02-04T04:13:00;6.80;;;2.13;;
37237;SDS011;23129;49.662;8.448;2023-02-04T04:15:29;6.65;;;1.50;;
37237;SDS011;23129;49.662;8.448;2023-02-04T04:17:57;7.03;;;1.70;;
37237;SDS011;23129;49.662;8.448;2023-02-04T04:20:27;8.80;;;1.92;;
37237;SDS011;23129;49.662;8.448;2023-02-04T04:22:56;3.60;;;1.50;;
37237;SDS011;23129;49.662;8.448;2023-02-04T04:25:24;8.73;;;2.25;;
37237;SDS011;23129;49.662;8.448;2023-02-04T04:27:52;9.60;;;1.63;;
37237;SDS011;23129;49.662;8.448;2023-02-04T04:30:23;14.38;;;2.22;;
37237;SDS011;23129;49.662;8.448;2023-02-04T04:32:51;6.60;;;1.90;;
37237;SDS011;23129;49.662;8.448;2023-02-04T04:35:20;6.65;;;1.75;;
37237;SDS011;23129;49.662;8.448;2023-02-04T04:37:49;11.35;;;2.60;;
37237;SDS011;23129;49.662;8.448;2023-02-04T04:40:18;5.70;;;2.53;;
37237;SDS011;23129;49.662;8.448;2023-02-04T04:42:46;12.70;;;2.25;;
37237;SDS011;23129;49.662;8.448;2023-02-04T04:45:14;3.88;;;1.85;;
37237;SDS011;23129;49.662;8.448;2023-02-04T04:47:42;15.23;;;2.30;;
37237;SDS011;23129;49.662;8.448;2023-02-04T04:50:11;7.18;;;1.67;;
37237;SDS011;23129;49.662;8.448;2023-02-04T04:52:39;7.15;;;1.92;;
37237;SDS011;23129;49.662;8.448;2023-02-04T04:55:09;7.68;;;2.90;;
37237;SDS011;23129;49.662;8.448;2023-02-04T04:57:38;6.43;;;2.03;;
37237;SDS011;23129;49.662;8.448;2023-02-04T05:00:07;4.03;;;1.83;;
37237;SDS011;23129;49.662;8.448;2023-02-04T05:02:38;6.93;;;1.60;;
37237;SDS011;23129;49.662;8.448;2023-02-04T05:05:07;11.02;;;3.08;;
37237;SDS011;23129;49.662;8.448;2023-02-04T05:07:35;7.70;;;3.33;;
37237;SDS011;23129;49.662;8.448;2023-02-04T05:10:04;2.80;;;1.48;;
37237;SDS011;23129;49.662;8.448;2023-02-04T05:12:34;3.58;;;2.08;;
37237;SDS011;23129;49.662;8.448;2023-02-04T05:15:03;7.90;;;2.55;;
37237;SDS011;23129;49.662;8.448;2023-02-04T05:17:32;8.95;;;1.80;;
37237;SDS011;23129;49.662;8.448;2023-02-04T05:20:01;10.38;;;2.03;;
37237;SDS011;23129;49.662;8.448;2023-02-04T05:22:29;3.20;;;2.08;;
37237;SDS011;23129;49.662;8.448;2023-02-04T05:24:58;8.43;;;1.73;;
37237;SDS011;23129;49.662;8.448;2023-02-04T05:27:26;5.68;;;1.88;;
37237;SDS011;23129;49.662;8.448;2023-02-04T05:29:55;5.22;;;2.22;;
37237;SDS011;23129;49.662;8.448;2023-02-04T05:32:24;14.25;;;2.88;;
37237;SDS011;23129;49.662;8.448;2023-02-04T05:34:52;7.45;;;2.38;;
37237;SDS011;23129;49.662;8.448;2023-02-04T05:37:21;7.10;;;2.00;;
37237;SDS011;23129;49.662;8.448;2023-02-04T05:39:49;11.98;;;1.98;;
37237;SDS011;23129;49.662;8.448;2023-02-04T05:42:17;6.85;;;2.05;;
37237;SDS011;23129;49.662;8.448;2023-02-04T05:44:45;7.82;;;1.48;;
37237;SDS011;23129;49.662;8.448;2023-02-04T05:47:15;9.68;;;2.25;;
37237;SDS011;23129;49.662;8.448;2023-02-04T05:49:45;4.05;;;1.77;;
37237;SDS011;23129;49.662;8.448;2023-02-04T05:52:13;8.48;;;1.88;;
37237;SDS011;23129;49.662;8.448;2023-02-04T05:54:41;4.47;;;2.10;;
37237;SDS011;23129;49.662;8.448;2023-02-04T05:57:10;8.70;;;1.85;;
37237;SDS011;23129;49.662;8.448;2023-02-04T05:59:38;3.13;;;2.03;;
37237;SDS011;23129;49.662;8.448;2023-02-04T06:02:07;6.07;;;1.73;;
37237;SDS011;23129;49.662;8.448;2023-02-04T06:04:37;3.53;;;2.20;;
37237;SDS011;23129;49.662;8.448;2023-02-04T06:07:05;8.82;;;1.77;;
37237;SDS011;23129;49.662;8.448;2023-02-04T06:09:33;12.90;;;1.73;;
37237;SDS011;23129;49.662;8.448;2023-02-04T06:12:02;9.90;;;2.25;;
37237;SDS011;23129;49.662;8.448;2023-02-04T06:14:31;8.48;;;1.73;;
37237;SDS011;23129;49.662;8.448;2023-02-04T06:16:59;7.38;;;2.70;;
37237;SDS011;23129;49.662;8.448;2023-02-04T06:19:27;4.45;;;2.10;;
37237;SDS011;23129;49.662;8.448;2023-02-04T06:21:57;4.85;;;2.17;;
37237;SDS011;23129;49.662;8.448;2023-02-04T06:24:25;9.90;;;1.98;;
37237;SDS011;23129;49.662;8.448;2023-02-04T06:26:53;5.53;;;1.88;;
37237;SDS011;23129;49.662;8.448;2023-02-04T06:29:22;8.75;;;2.30;;
37237;SDS011;23129;49.662;8.448;2023-02-04T06:31:50;11.35;;;2.40;;
37237;SDS011;23129;49.662;8.448;2023-02-04T06:34:19;6.28;;;2.08;;
37237;SDS011;23129;49.662;8.448;2023-02-04T06:36:47;8.02;;;2.58;;
37237;SDS011;23129;49.662;8.448;2023-02-04T06:39:17;3.67;;;2.25;;
37237;SDS011;23129;49.662;8.448;2023-02-04T06:41:46;5.10;;;2.28;;
37237;SDS011;23129;49.662;8.448;2023-02-04T06:44:14;6.82;;;2.17;;
37237;SDS011;23129;49.662;8.448;2023-02-04T06:46:43;4.22;;;2.15;;
37237;SDS011;23129;49.662;8.448;2023-02-04T06:49:11;7.15;;;2.80;;
37237;SDS011;23129;49.662;8.448;2023-02-04T06:51:39;7.35;;;2.47;;
37237;SDS011;23129;49.662;8.448;2023-02-04T06:54:08;6.47;;;3.25;;
37237;SDS011;23129;49.662;8.448;2023-02-04T06:56:37;10.80;;;3.60;;
37237;SDS011;23129;49.662;8.448;2023-02-04T06:59:08;4.25;;;2.22;;
37237;SDS011;23129;49.662;8.448;2023-02-04T07:01:37;12.88;;;3.88;;
37237;SDS011;23129;49.662;8.448;2023-02-04T07:04:06;11.35;;;3.92;;
37237;SDS011;23129;49.662;8.448;2023-02-04T07:06:34;9.63;;;3.28;;
37237;SDS011;23129;49.662;8.448;2023-02-04T07:09:02;11.02;;;3.28;;
37237;SDS011;23129;49.662;8.448;2023-02-04T07:11:31;12.80;;;2.72;;
37237;SDS011;23129;49.662;8.448;2023-02-04T07:14:01;8.07;;;3.05;;
37237;SDS011;23129;49.662;8.448;2023-02-04T07:16:29;8.93;;;2.30;;
37237;SDS011;23129;49.662;8.448;2023-02-04T07:18:58;5.50;;;2.55;;
37237;SDS011;23129;49.662;8.448;2023-02-04T07:21:26;5.93;;;2.33;;
37237;SDS011;23129;49.662;8.448;2023-02-04T07:23:59;10.02;;;3.75;;
37237;SDS011;23129;49.662;8.448;2023-02-04T07:26:29;9.43;;;3.63;;
37237;SDS011;23129;49.662;8.448;2023-02-04T07:29:00;6.72;;;3.00;;
37237;SDS011;23129;49.662;8.448;2023-02-04T07:31:29;8.30;;;2.78;;
37237;SDS011;23129;49.662;8.448;2023-02-04T07:33:57;7.38;;;3.03;;
37237;SDS011;23129;49.662;8.448;2023-02-04T07:36:26;9.13;;;3.13;;
37237;SDS011;23129;49.662;8.448;2023-02-04T07:38:54;6.38;;;2.47;;
37237;SDS011;23129;49.662;8.448;2023-02-04T07:41:22;8.88;;;2.80;;
37237;SDS011;23129;49.662;8.448;2023-02-04T07:43:51;6.38;;;2.75;;
37237;SDS011;23129;49.662;8.448;2023-02-04T07:46:20;10.52;;;2.80;;
37237;SDS011;23129;49.662;8.448;2023-02-04T07:48:48;21.08;;;3.60;;
37237;SDS011;23129;49.662;8.448;2023-02-04T07:51:17;18.83;;;3.00;;
37237;SDS011;23129;49.662;8.448;2023-02-04T07:53:45;9.45;;;2.53;;
37237;SDS011;23129;49.662;8.448;2023-02-04T07:56:13;10.77;;;2.75;;
37237;SDS011;23129;49.662;8.448;2023-02-04T07:58:42;7.68;;;2.25;;
37237;SDS011;23129;49.662;8.448;2023-02-04T08:01:11;5.80;;;2.20;;
37237;SDS011;23129;49.662;8.448;2023-02-04T08:03:40;14.40;;;2.95;;
37237;SDS011;23129;49.662;8.448;2023-02-04T08:06:09;11.25;;;2.75;;
37237;SDS011;23129;49.662;8.448;2023-02-04T08:08:38;6.65;;;2.05;;
37237;SDS011;23129;49.662;8.448;2023-02-04T08:11:07;10.90;;;2.75;;
37237;SDS011;23129;49.662;8.448;2023-02-04T08:13:35;14.63;;;2.88;;
37237;SDS011;23129;49.662;8.448;2023-02-04T08:16:03;11.00;;;2.85;;
37237;SDS011;23129;49.662;8.448;2023-02-04T08:18:33;17.95;;;2.75;;
37237;SDS011;23129;49.662;8.448;2023-02-04T08:21:03;8.07;;;2.63;;
37237;SDS011;23129;49.662;8.448;2023-02-04T08:23:32;12.38;;;3.13;;
37237;SDS011;23129;49.662;8.448;2023-02-04T08:26:03;7.28;;;3.30;;
37237;SDS011;23129;49.662;8.448;2023-02-04T08:28:32;22.75;;;2.75;;
37237;SDS011;23129;49.662;8.448;2023-02-04T08:31:00;11.48;;;2.67;;
37237;SDS011;23129;49.662;8.448;2023-02-04T08:33:29;17.75;;;2.88;;
37237;SDS011;23129;49.662;8.448;2023-02-04T08:35:57;9.90;;;2.58;;
37237;SDS011;23129;49.662;8.448;2023-02-04T08:38:27;16.15;;;2.67;;
37237;SDS011;23129;49.662;8.448;2023-02-04T08:40:56;14.50;;;3.45;;
37237;SDS011;23129;49.662;8.448;2023-02-04T08:43:25;13.40;;;2.58;;
37237;SDS011;23129;49.662;8.448;2023-02-04T08:45:53;17.17;;;3.58;;
37237;SDS011;23129;49.662;8.448;2023-02-04T08:48:22;8.18;;;2.83;;
37237;SDS011;23129;49.662;8.448;2023-02-04T08:50:50;17.40;;;3.20;;
37237;SDS011;23129;49.662;8.448;2023-02-04T08:53:18;14.32;;;3.67;;
37237;SDS011;23129;49.662;8.448;2023-02-04T08:55:48;10.13;;;3.35;;
37237;SDS011;23129;49.662;8.448;2023-02-04T08:58:16;20.15;;;3.95;;
37237;SDS011;23129;49.662;8.448;2023-02-04T09:00:45;19.38;;;5.13;;
37237;SDS011;23129;49.662;8.448;2023-02-04T09:03:13;23.52;;;4.95;;
37237;SDS011;23129;49.662;8.448;2023-02-04T09:05:41;30.00;;;7.07;;
37237;SDS011;23129;49.662;8.448;2023-02-04T09:08:09;20.38;;;5.65;;
37237;SDS011;23129;49.662;8.448;2023-02-04T09:10:37;20.67;;;6.97;;
37237;SDS011;23129;49.662;8.448;2023-02-04T09:13:07;26.38;;;6.25;;
37237;SDS011;23129;49.662;8.448;2023-02-04T09:15:37;15.13;;;3.35;;
37237;SDS011;23129;49.662;8.448;2023-02-04T09:18:05;23.65;;;3.88;;
37237;SDS011;23129;49.662;8.448;2023-02-04T09:20:41;9.52;;;2.72;;
37237;SDS011;23129;49.662;8.448;2023-02-04T09:23:10;9.98;;;2.38;;
37237;SDS011;23129;49.662;8.448;2023-02-04T09:25:39;21.30;;;2.90;;
37237;SDS011;23129;49.662;8.448;2023-02-04T09:28:10;17.67;;;3.47;;
37237;SDS011;23129;49.662;8.448;2023-02-04T09:30:43;19.88;;;3.10;;
37237;SDS011;23129;49.662;8.448;2023-02-04T09:33:14;19.98;;;3.40;;
37237;SDS011;23129;49.662;8.448;2023-02-04T09:35:43;22.60;;;3.35;;
37237;SDS011;23129;49.662;8.448;2023-02-04T09:38:12;15.15;;;3.28;;
37237;SDS011;23129;49.662;8.448;2023-02-04T09:40:41;23.50;;;3.15;;
37237;SDS011;23129;49.662;8.448;2023-02-04T09:43:15;19.70;;;3.40;;
37237;SDS011;23129;49.662;8.448;2023-02-04T09:45:50;17.02;;;3.13;;
37237;SDS011;23129;49.662;8.448;2023-02-04T09:48:20;26.13;;;3.92;;
37237;SDS011;23129;49.662;8.448;2023-02-04T09:50:50;18.70;;;3.03;;
37237;SDS011;23129;49.662;8.448;2023-02-04T09:53:23;14.77;;;3.38;;
37237;SDS011;23129;49.662;8.448;2023-02-04T09:55:52;12.90;;;2.42;;
37237;SDS011;23129;49.662;8.448;2023-02-04T09:58:21;12.43;;;2.88;;
37237;SDS011;23129;49.662;8.448;2023-02-04T10:00:55;16.83;;;2.70;;
37237;SDS011;23129;49.662;8.448;2023-02-04T10:03:27;22.77;;;3.13;;
37237;SDS011;23129;49.662;8.448;2023-02-04T10:05:56;22.85;;;3.40;;
37237;SDS011;23129;49.662;8.448;2023-02-04T10:08:25;17.60;;;2.90;;
37237;SDS011;23129;49.662;8.448;2023-02-04T10:10:57;15.60;;;2.22;;
37237;SDS011;23129;49.662;8.448;2023-02-04T10:13:29;12.27;;;2.90;;
37237;SDS011;23129;49.662;8.448;2023-02-04T10:16:01;9.80;;;2.30;;
37237;SDS011;23129;49.662;8.448;2023-02-04T10:18:37;14.82;;;2.30;;
37237;SDS011;23129;49.662;8.448;2023-02-04T10:21:11;7.20;;;1.92;;
37237;SDS011;23129;49.662;8.448;2023-02-04T10:23:43;22.58;;;3.05;;
37237;SDS011;23129;49.662;8.448;2023-02-04T10:26:15;14.73;;;2.25;;
37237;SDS011;23129;49.662;8.448;2023-02-04T10:28:45;9.45;;;2.40;;
37237;SDS011;23129;49.662;8.448;2023-02-04T10:31:31;15.73;;;3.28;;
37237;SDS011;23129;49.662;8.448;2023-02-04T10:34:04;22.23;;;1.90;;
37237;SDS011;23129;49.662;8.448;2023-02-04T10:36:37;11.00;;;1.48;;
37237;SDS011;23129;49.662;8.448;2023-02-04T10:39:09;11.60;;;1.90;;
37237;SDS011;23129;49.662;8.448;2023-02-04T10:41:44;9.45;;;1.55;;
37237;SDS011;23129;49.662;8.448;2023-02-04T10:44:17;13.13;;;1.95;;
37237;SDS011;23129;49.662;8.448;2023-02-04T10:46:48;20.50;;;2.25;;
37237;SDS011;23129;49.662;8.448;2023-02-04T10:49:20;15.73;;;1.83;;
37237;SDS011;23129;49.662;8.448;2023-02-04T10:51:50;9.48;;;2.08;;
37237;SDS011;23129;49.662;8.448;2023-02-04T10:54:20;15.35;;;2.22;;
37237;SDS011;23129;49.662;8.448;2023-02-04T10:56:58;18.25;;;2.00;;
37237;SDS011;23129;49.662;8.448;2023-02-04T10:59:46;11.32;;;2.05;;
37237;SDS011;23129;49.662;8.448;2023-02-04T11:02:26;13.63;;;2.35;;
37237;SDS011;23129;49.662;8.448;2023-02-04T11:05:10;10.60;;;1.88;;
37237;SDS011;23129;49.662;8.448;2023-02-04T11:07:43;10.70;;;2.10;;
37237;SDS011;23129;49.662;8.448;2023-02-04T11:10:13;13.68;;;2.55;;
37237;SDS011;23129;49.662;8.448;2023-02-04T11:12:45;20.90;;;2.75;;
37237;SDS011;23129;49.662;8.448;2023-02-04T11:15:37;10.45;;;1.67;;
37237;SDS011;23129;49.662;8.448;2023-02-04T11:18:12;10.10;;;2.53;;
37237;SDS011;23129;49.662;8.448;2023-02-04T11:20:55;13.93;;;2.22;;
37237;SDS011;23129;49.662;8.448;2023-02-04T11:23:29;15.80;;;2.35;;
37237;SDS011;23129;49.662;8.448;2023-02-04T11:26:04;23.35;;;2.55;;
37237;SDS011;23129;49.662;8.448;2023-02-04T11:28:43;12.18;;;2.35;;
37237;SDS011;23129;49.662;8.448;2023-02-04T11:31:27;10.00;;;2.45;;
37237;SDS011;23129;49.662;8.448;2023-02-04T11:34:10;10.35;;;2.35;;
37237;SDS011;23129;49.662;8.448;2023-02-04T11:40:11;10.23;;;2.70;;
37237;SDS011;23129;49.662;8.448;2023-02-04T11:42:56;11.75;;;2.10;;
37237;SDS011;23129;49.662;8.448;2023-02-04T11:45:28;6.78;;;1.77;;
37237;SDS011;23129;49.662;8.448;2023-02-04T11:48:02;12.32;;;2.03;;
37237;SDS011;23129;49.662;8.448;2023-02-04T11:50:38;11.60;;;1.48;;
37237;SDS011;23129;49.662;8.448;2023-02-04T11:53:08;16.83;;;2.20;;
37237;SDS011;23129;49.662;8.448;2023-02-04T11:55:42;12.35;;;2.33;;
37237;SDS011;23129;49.662;8.448;2023-02-04T11:58:13;12.52;;;1.50;;
37237;SDS011;23129;49.662;8.448;2023-02-04T12:00:45;5.45;;;1.70;;
37237;SDS011;23129;49.662;8.448;2023-02-04T12:03:20;11.27;;;2.47;;
37237;SDS011;23129;49.662;8.448;2023-02-04T12:05:52;11.77;;;1.85;;
37237;SDS011;23129;49.662;8.448;2023-02-04T12:08:25;6.07;;;1.77;;
37237;SDS011;23129;49.662;8.448;2023-02-04T12:11:00;13.70;;;2.03;;
37237;SDS011;23129;49.662;8.448;2023-02-04T12:13:33;3.33;;;1.25;;
37237;SDS011;23129;49.662;8.448;2023-02-04T12:16:12;10.27;;;1.85;;
37237;SDS011;23129;49.662;8.448;2023-02-04T12:18:42;11.30;;;1.80;;
37237;SDS011;23129;49.662;8.448;2023-02-04T12:21:10;9.82;;;1.50;;
37237;SDS011;23129;49.662;8.448;2023-02-04T12:23:40;6.97;;;1.75;;
37237;SDS011;23129;49.662;8.448;2023-02-04T12:26:08;9.55;;;1.70;;
37237;SDS011;23129;49.662;8.448;2023-02-04T12:28:38;7.63;;;1.65;;
37237;SDS011;23129;49.662;8.448;2023-02-04T12:31:06;6.30;;;1.73;;
37237;SDS011;23129;49.662;8.448;2023-02-04T12:33:35;11.00;;;2.13;;
37237;SDS011;23129;49.662;8.448;2023-02-04T12:36:05;13.45;;;1.88;;
37237;SDS011;23129;49.662;8.448;2023-02-04T12:38:34;14.38;;;2.20;;
37237;SDS011;23129;49.662;8.448;2023-02-04T12:41:02;9.80;;;1.75;;
37237;SDS011;23129;49.662;8.448;2023-02-04T12:43:31;10.40;;;1.40;;
37237;SDS011;23129;49.662;8.448;2023-02-04T12:45:59;9.98;;;1.30;;
37237;SDS011;23129;49.662;8.448;2023-02-04T12:48:27;9.40;;;1.75;;
37237;SDS011;23129;49.662;8.448;2023-02-04T12:50:56;12.40;;;1.80;;
37237;SDS011;23129;49.662;8.448;2023-02-04T12:53:26;10.60;;;1.20;;
37237;SDS011;23129;49.662;8.448;2023-02-04T12:55:54;12.38;;;1.95;;
37237;SDS011;23129;49.662;8.448;2023-02-04T12:58:23;9.27;;;1.70;;
37237;SDS011;23129;49.662;8.448;2023-02-04T13:00:51;8.98;;;1.77;;
37237;SDS011;23129;49.662;8.448;2023-02-04T13:03:20;9.57;;;2.58;;
37237;SDS011;23129;49.662;8.448;2023-02-04T13:05:50;19.13;;;4.30;;
37237;SDS011;23129;49.662;8.448;2023-02-04T13:08:18;8.68;;;1.83;;
37237;SDS011;23129;49.662;8.448;2023-02-04T13:10:48;9.93;;;2.03;;
37237;SDS011;23129;49.662;8.448;2023-02-04T13:13:17;9.07;;;1.77;;
37237;SDS011;23129;49.662;8.448;2023-02-04T13:15:46;11.23;;;3.03;;
37237;SDS011;23129;49.662;8.448;2023-02-04T13:18:14;8.80;;;3.13;;
37237;SDS011;23129;49.662;8.448;2023-02-04T13:20:44;10.15;;;2.47;;
37237;SDS011;23129;49.662;8.448;2023-02-04T13:23:12;13.07;;;3.15;;
37237;SDS011;23129;49.662;8.448;2023-02-04T13:25:40;11.38;;;1.95;;
37237;SDS011;23129;49.662;8.448;2023-02-04T13:28:11;7.78;;;2.28;;
37237;SDS011;23129;49.662;8.448;2023-02-04T13:30:40;7.85;;;1.80;;
37237;SDS011;23129;49.662;8.448;2023-02-04T13:33:08;16.90;;;2.40;;
37237;SDS011;23129;49.662;8.448;2023-02-04T13:35:37;9.25;;;1.70;;
37237;SDS011;23129;49.662;8.448;2023-02-04T13:38:05;12.27;;;2.00;;
37237;SDS011;23129;49.662;8.448;2023-02-04T13:40:33;11.88;;;2.03;;
37237;SDS011;23129;49.662;8.448;2023-02-04T13:43:02;11.40;;;1.63;;
37237;SDS011;23129;49.662;8.448;2023-02-04T13:45:31;13.75;;;1.70;;
37237;SDS011;23129;49.662;8.448;2023-02-04T13:48:00;6.50;;;1.40;;
37237;SDS011;23129;49.662;8.448;2023-02-04T13:50:29;10.25;;;2.10;;
37237;SDS011;23129;49.662;8.448;2023-02-04T13:52:57;16.30;;;1.48;;
37237;SDS011;23129;49.662;8.448;2023-02-04T13:55:26;8.55;;;2.28;;
37237;SDS011;23129;49.662;8.448;2023-02-04T13:57:54;12.70;;;2.30;;
37237;SDS011;23129;49.662;8.448;2023-02-04T14:00:22;17.33;;;2.70;;
37237;SDS011;23129;49.662;8.448;2023-02-04T14:02:52;7.22;;;1.77;;
37237;SDS011;23129;49.662;8.448;2023-02-04T14:05:21;7.78;;;2.90;;
37237;SDS011;23129;49.662;8.448;2023-02-04T14:07:50;10.77;;;2.10;;
37237;SDS011;23129;49.662;8.448;2023-02-04T14:10:18;7.28;;;1.80;;
37237;SDS011;23129;49.662;8.448;2023-02-04T14:12:50;12.63;;;2.10;;
37237;SDS011;23129;49.662;8.448;2023-02-04T14:15:19;12.38;;;2.33;;
37237;SDS011;23129;49.662;8.448;2023-02-04T14:17:48;12.00;;;3.67;;
37237;SDS011;23129;49.662;8.448;2023-02-04T14:20:18;12.48;;;2.67;;
37237;SDS011;23129;49.662;8.448;2023-02-04T14:22:46;9.02;;;2.35;;
37237;SDS011;23129;49.662;8.448;2023-02-04T14:25:15;8.18;;;1.98;;
37237;SDS011;23129;49.662;8.448;2023-02-04T14:27:43;14.48;;;4.05;;
37237;SDS011;23129;49.662;8.448;2023-02-04T14:30:14;17.88;;;2.40;;
37237;SDS011;23129;49.662;8.448;2023-02-04T14:32:44;11.57;;;2.20;;
37237;SDS011;23129;49.662;8.448;2023-02-04T14:35:13;12.70;;;2.10;;
37237;SDS011;23129;49.662;8.448;2023-02-04T14:37:44;31.80;;;10.75;;
37237;SDS011;23129;49.662;8.448;2023-02-04T14:40:13;20.27;;;5.43;;
37237;SDS011;23129;49.662;8.448;2023-02-04T14:42:44;10.70;;;3.40;;
37237;SDS011;23129;49.662;8.448;2023-02-04T14:45:13;9.65;;;3.10;;
37237;SDS011;23129;49.662;8.448;2023-02-04T14:47:42;9.38;;;2.13;;
37237;SDS011;23129;49.662;8.448;2023-02-04T14:50:11;10.10;;;2.17;;
37237;SDS011;23129;49.662;8.448;2023-02-04T14:52:41;9.38;;;2.08;;
37237;SDS011;23129;49.662;8.448;2023-02-04T14:55:11;11.60;;;1.75;;
37237;SDS011;23129;49.662;8.448;2023-02-04T14:57:40;6.97;;;1.55;;
37237;SDS011;23129;49.662;8.448;2023-02-04T15:00:09;7.03;;;1.55;;